Yutan, Nebraska
Current Conditions -  °F | °C
As of 11:35 AM on Wednesday 26 Nov 2014 (Local Time) from KAHQ Reporting Station
Overcast Overcast  
Wind Chill: 16°   Ceiling: 1500
Heat Index: 30°   Visibility: 10mi
Dew Point: 24°   Wind: 28mph
Humidity: 79%   Direction: 340°NNW
Pressure: 30.12"   Gusts: 40mph
Location:  41.24°N, 96.4°W
Report Text: KAHQ 261735Z AUTO 34024G35KT 10SM OVC015 M01/M04 A3012 RMK AO2 T10091042
Loading
Personal Weather Stations






























Interactive Weather Map New forecast layout! Learn more

10-Day Weather Forecast

Advertisements
Track Severe Weather on mobile